createdAt,value
2023-03-05T00:02:19.012Z,6.77
2023-03-05T00:07:44.122Z,7.93
2023-03-05T00:13:08.923Z,8.53
2023-03-05T00:18:33.134Z,8.02
2023-03-05T00:23:58.327Z,6.00
2023-03-05T00:29:22.213Z,4.55
2023-03-05T00:34:46.425Z,3.66
2023-03-05T00:40:13.018Z,3.04
2023-03-05T00:45:37.532Z,2.64
2023-03-05T00:51:01.610Z,2.44
2023-03-05T00:56:25.415Z,2.28
2023-03-05T01:01:50.235Z,2.13
2023-03-05T01:07:14.195Z,2.04
2023-03-05T01:12:38.793Z,1.98
2023-03-05T01:18:03.390Z,1.96
2023-03-05T01:23:27.223Z,1.98
2023-03-05T01:28:51.433Z,3.10
2023-03-05T01:34:15.540Z,6.11
2023-03-05T01:39:39.166Z,7.71
2023-03-05T01:45:17.663Z,8.63
2023-03-05T01:50:42.301Z,9.19
2023-03-05T01:56:07.558Z,8.45
2023-03-05T02:01:41.237Z,6.13
2023-03-05T02:07:05.941Z,4.52
2023-03-05T02:12:30.064Z,3.46
2023-03-05T02:17:54.615Z,2.79
2023-03-05T02:23:21.242Z,2.35
2023-03-05T02:28:57.421Z,2.09
2023-03-05T02:34:22.444Z,1.94
2023-03-05T02:39:46.943Z,1.82
2023-03-05T02:45:12.524Z,1.73
2023-03-05T02:50:37.591Z,1.68
2023-03-05T02:56:02.227Z,3.11
2023-03-05T03:01:30.024Z,5.38
2023-03-05T03:06:54.821Z,6.29
2023-03-05T03:12:19.122Z,6.44
2023-03-05T03:17:43.514Z,4.67
2023-03-05T03:23:08.876Z,4.58
2023-03-05T03:28:33.391Z,6.09
2023-03-05T03:33:57.931Z,6.71
2023-03-05T03:39:22.638Z,6.06
2023-03-05T03:44:47.050Z,5.06
2023-03-05T03:50:11.740Z,6.17
2023-03-05T03:55:36.514Z,6.67
2023-03-05T04:01:01.103Z,6.64
2023-03-05T04:06:25.336Z,5.07
2023-03-05T04:11:49.640Z,5.73
2023-03-05T04:17:14.833Z,6.11
2023-03-05T04:22:38.947Z,6.17
2023-03-05T04:28:03.345Z,6.41
2023-03-05T04:33:27.640Z,6.36
2023-03-05T04:38:51.868Z,6.23
2023-03-05T04:44:15.734Z,6.12
2023-03-05T04:49:39.687Z,6.09
2023-03-05T04:55:04.102Z,6.09
2023-03-05T05:00:28.634Z,5.90
2023-03-05T05:05:57.359Z,6.05
2023-03-05T05:11:21.661Z,6.12
2023-03-05T05:16:46.217Z,6.12
2023-03-05T05:22:10.218Z,5.97
2023-03-05T05:27:34.167Z,5.86
2023-03-05T05:32:58.899Z,5.60
2023-03-05T05:38:23.801Z,4.15
2023-03-05T05:43:48.941Z,4.99
2023-03-05T05:49:13.370Z,4.92
2023-03-05T05:54:37.462Z,3.67
2023-03-05T06:00:02.085Z,4.74
2023-03-05T06:05:36.147Z,3.74
2023-03-05T06:11:00.689Z,3.23
2023-03-05T06:16:25.284Z,4.53
2023-03-05T06:21:49.980Z,3.45
2023-03-05T06:27:13.745Z,3.32
2023-03-05T06:32:37.803Z,4.68
2023-03-05T06:38:02.964Z,3.62
2023-03-05T06:43:27.748Z,3.91
2023-03-05T06:48:53.302Z,4.94
2023-03-05T06:54:19.115Z,3.73
2023-03-05T06:59:44.764Z,4.17
2023-03-05T07:05:10.340Z,4.97
2023-03-05T07:10:44.335Z,4.86
2023-03-05T07:16:11.287Z,3.68
2023-03-05T07:21:39.463Z,4.77
2023-03-05T07:27:05.759Z,4.84
2023-03-05T07:32:30.981Z,3.49
2023-03-05T07:37:56.975Z,4.48
2023-03-05T07:43:22.339Z,4.75
2023-03-05T07:48:48.616Z,3.39
2023-03-05T07:54:13.271Z,4.43
2023-03-05T07:59:38.932Z,4.25
2023-03-05T08:05:03.388Z,3.43
2023-03-05T08:10:28.020Z,4.88
2023-03-05T08:15:53.083Z,4.01
2023-03-05T08:21:27.479Z,3.62
2023-03-05T08:26:51.967Z,4.80
2023-03-05T08:32:16.251Z,3.69
2023-03-05T08:37:40.040Z,3.21
2023-03-05T08:43:06.130Z,4.83
2023-03-05T08:48:32.154Z,4.36
2023-03-05T08:54:00.162Z,3.61
2023-03-05T08:59:25.060Z,5.03
2023-03-05T09:04:49.173Z,4.46
2023-03-05T09:10:15.065Z,4.18
2023-03-05T09:15:39.546Z,5.30
2023-03-05T09:21:09.373Z,4.23
2023-03-05T09:26:34.560Z,4.66
2023-03-05T09:31:59.178Z,5.52
2023-03-05T09:37:23.580Z,4.35
2023-03-05T09:43:03.971Z,5.30
2023-03-05T09:48:49.066Z,5.48
2023-03-05T09:54:36.559Z,4.32
2023-03-05T10:00:09.204Z,5.23
2023-03-05T10:05:49.487Z,5.56
2023-03-05T10:11:48.722Z,4.34
2023-03-05T10:17:38.392Z,5.52
2023-03-05T10:23:08.241Z,5.79
2023-03-05T10:28:54.406Z,4.47
2023-03-05T10:34:49.540Z,3.90
2023-03-05T10:40:28.341Z,5.36
2023-03-05T10:45:58.806Z,4.87
2023-03-05T10:51:38.694Z,4.15
2023-03-05T10:57:18.504Z,3.91
2023-03-05T11:03:05.508Z,3.86
2023-03-05T11:08:32.074Z,3.90
2023-03-05T11:14:00.003Z,3.96
2023-03-05T11:19:23.889Z,4.00
2023-03-05T11:25:22.408Z,4.03
2023-03-05T11:31:04.488Z,4.08
2023-03-05T11:36:33.810Z,4.05
2023-03-05T11:42:25.407Z,4.04
2023-03-05T11:47:52.986Z,4.02
2023-03-05T11:53:40.975Z,4.02
2023-03-05T11:59:14.265Z,4.00
2023-03-05T12:04:38.758Z,4.02
2023-03-05T12:10:06.157Z,4.03
2023-03-05T12:15:52.461Z,4.15
2023-03-05T12:21:38.125Z,4.57
2023-03-05T12:27:03.087Z,5.10
2023-03-05T12:32:35.781Z,5.09
2023-03-05T12:38:06.160Z,4.81
2023-03-05T12:43:36.708Z,4.55
2023-03-05T12:49:23.436Z,4.31
2023-03-05T12:55:01.744Z,4.16
2023-03-05T13:00:34.094Z,4.03
2023-03-05T13:06:01.375Z,3.89
2023-03-05T13:11:25.938Z,4.72
2023-03-05T13:16:51.313Z,7.14
2023-03-05T13:22:16.425Z,8.47
2023-03-05T13:27:42.026Z,9.07
2023-03-05T13:33:09.835Z,8.74
2023-03-05T13:38:40.495Z,6.59
2023-03-05T13:44:05.651Z,5.06
2023-03-05T13:49:30.969Z,4.20
2023-03-05T13:54:58.596Z,3.80
2023-03-05T14:00:39.347Z,3.86
2023-03-05T14:06:10.275Z,6.00
2023-03-05T14:11:36.122Z,5.38
2023-03-05T14:17:23.667Z,4.47
2023-03-05T14:22:49.966Z,4.64
2023-03-05T14:28:17.413Z,5.97
2023-03-05T14:33:41.491Z,4.87
2023-03-05T14:39:05.934Z,4.54
2023-03-05T14:44:30.135Z,6.13
2023-03-05T14:49:55.270Z,5.47
2023-03-05T14:55:23.637Z,4.41
2023-03-05T15:00:51.235Z,4.27
2023-03-05T15:06:31.126Z,5.90
2023-03-05T15:11:55.741Z,4.89
2023-03-05T15:17:35.662Z,4.68
2023-03-05T15:23:01.217Z,5.94
2023-03-05T15:28:27.965Z,4.69
2023-03-05T15:33:54.355Z,4.03
2023-03-05T15:39:19.474Z,5.56
2023-03-05T15:44:44.443Z,5.71
2023-03-05T15:50:10.100Z,5.15
2023-03-05T15:55:41.409Z,6.75
2023-03-05T16:01:07.666Z,6.00
2023-03-05T16:06:35.997Z,5.29
2023-03-05T16:12:02.695Z,6.56
2023-03-05T16:17:28.391Z,6.19
2023-03-05T16:22:56.451Z,5.09
2023-03-05T16:28:21.803Z,6.44
2023-03-05T16:33:47.233Z,6.11
2023-03-05T16:39:13.941Z,4.90
2023-03-05T16:44:38.932Z,6.71
2023-03-05T16:50:07.283Z,7.83
2023-03-05T16:55:33.956Z,8.19
2023-03-05T17:01:01.789Z,8.28
2023-03-05T17:06:30.740Z,8.42
2023-03-05T17:11:57.829Z,8.52
2023-03-05T17:17:26.321Z,7.94
2023-03-05T17:22:53.456Z,5.74
2023-03-05T17:28:18.631Z,4.18
2023-03-05T17:33:44.023Z,3.18
2023-03-05T17:39:10.668Z,2.52
2023-03-05T17:44:35.749Z,2.07
2023-03-05T17:50:00.489Z,2.03
2023-03-05T17:55:26.126Z,4.33
2023-03-05T18:00:50.066Z,5.55
2023-03-05T18:06:14.307Z,5.91
2023-03-05T18:11:38.801Z,6.16
2023-03-05T18:17:03.551Z,6.36
2023-03-05T18:22:28.247Z,4.84
2023-03-05T18:27:53.852Z,3.91
2023-03-05T18:33:20.670Z,5.20
2023-03-05T18:38:45.390Z,5.79
2023-03-05T18:44:10.691Z,6.07
2023-03-05T18:49:36.214Z,6.34
2023-03-05T18:55:00.635Z,4.75
2023-03-05T19:00:28.629Z,3.83
2023-03-05T19:05:53.702Z,5.11
2023-03-05T19:11:21.803Z,5.80
2023-03-05T19:16:48.293Z,6.24
2023-03-05T19:22:14.382Z,6.46
2023-03-05T19:27:39.336Z,6.56
2023-03-05T19:33:07.090Z,4.78
2023-03-05T19:38:34.761Z,3.27
2023-03-05T19:44:05.360Z,4.71
2023-03-05T19:49:33.063Z,5.74
2023-03-05T19:55:01.293Z,6.11
2023-03-05T20:00:28.272Z,6.33
2023-03-05T20:05:56.663Z,6.47
2023-03-05T20:11:24.017Z,6.58
2023-03-05T20:16:52.743Z,6.63
2023-03-05T20:22:23.589Z,4.84
2023-03-05T20:27:55.294Z,4.12
2023-03-05T20:33:19.551Z,5.44
2023-03-05T20:38:45.667Z,5.94
2023-03-05T20:44:11.690Z,6.33
2023-03-05T20:49:37.330Z,6.52
2023-03-05T20:55:02.454Z,6.59
2023-03-05T21:00:27.510Z,5.80
2023-03-05T21:05:51.912Z,3.70
2023-03-05T21:11:15.933Z,4.22
2023-03-05T21:16:42.048Z,5.44
2023-03-05T21:22:15.613Z,5.95
2023-03-05T21:27:40.617Z,6.22
2023-03-05T21:33:09.213Z,6.22
2023-03-05T21:38:34.338Z,6.25
2023-03-05T21:44:04.227Z,6.30
2023-03-05T21:49:28.427Z,6.61
2023-03-05T21:54:54.593Z,5.76
2023-03-05T22:00:23.136Z,3.55
2023-03-05T22:05:47.612Z,2.13
2023-03-05T22:11:14.250Z,1.85
2023-03-05T22:16:38.130Z,3.86
2023-03-05T22:22:02.475Z,4.91
2023-03-05T22:27:26.700Z,5.27
2023-03-05T22:32:51.311Z,5.36
2023-03-05T22:38:16.199Z,5.44
2023-03-05T22:43:40.230Z,5.49
2023-03-05T22:49:03.945Z,5.43
2023-03-05T22:54:28.291Z,5.42
2023-03-05T22:59:51.910Z,5.79
2023-03-05T23:05:17.640Z,6.10
2023-03-05T23:10:42.209Z,6.20
2023-03-05T23:16:06.390Z,6.33
2023-03-05T23:21:30.884Z,6.45
2023-03-05T23:26:55.071Z,6.64
2023-03-05T23:32:19.021Z,6.81
2023-03-05T23:37:44.179Z,6.27
2023-03-05T23:43:08.742Z,4.05
2023-03-05T23:48:32.894Z,3.39
2023-03-05T23:53:56.949Z,5.11
2023-03-05T23:59:21.153Z,5.86
